Brady Lake, Ohio
Current Conditions -  °F | °C
As of 2:20 PM on Friday 21 Nov 2014 (Local Time) from KPOV Reporting Station
Overcast Overcast  
Wind Chill: 23°   Ceiling: 3000
Heat Index: 23°   Visibility: 10mi
Dew Point:   Wind: 3mph
Humidity: 57%   Direction: 280°W
Pressure: 30.45"   Gusts: NA
Location:  41.16°N, 81.32°W
Report Text: KPOV 211920Z AUTO 28003KT 10SM OVC030 M05/M13 A3045 RMK AO2 T10521126
Loading
Personal Weather Stations






























Interactive Weather Map New forecast layout! Learn more

10-Day Weather Forecast

Advertisements
Track Severe Weather on mobile